Rechercher aéroport 
image banner adimage banner adimage banner ad
image banner ad

CA44 - Sequoia Ranch

Situé à Springville, United States

ICAO - CA44, IATA -

Données fournies par Airmate  

Information générale

Coordonnées: N36°8'60" W118°48'8"
Élévation : 1153 feet MSL.
Variation magnétique : 15° East
Voir autres Aéroports à California

Données opérationnelles

Special qualification required
Heure actuelle UTC:
Heure actuelle locale:
Météo à : KPTV - Porterville Muni ( 27 km )
METAR: KPTV 020456Z AUTO 10008KT 10SM CLR 28/03 A3000 RMK AO2 SLP153 T02830033
Voir NOTAMs / SUP AIP / TFR affectant cet aéroport [VIEW]
Fréquences de communication: [VIEW]

Pistes:

Identifiant RWYQFULongueur (ft)Largeur (ft)SurfaceLDA (ft)
N2800100OTHER
S2800100OTHER

Coordonnées de l'aéroport

Adresse: Springville United States

Vue satellite de CA44